Time;durP1;ratioP1;P1;durP2;ratioP2;P2;SDS_P1;SDS_P2;PMS_P1;PMS_P2;Temp;Humidity;BMP_temperature;BMP_pressure;BME280_temperature;BME280_humidity;BME280_pressure;Samples;Min_cycle;Max_cycle;Signal;HPM_P1;HPM_P2
2021/11/22 00:02:23;;;;;;;;;;;;;;;13.42;45.07;102187.94;5033579;28;19924;-80
2021/11/22 00:04:49;;;;;;;;;;;;;;;13.44;44.94;102188.75;5032799;28;20306;-80
2021/11/22 00:07:16;;;;;;;;;;;;;;;13.39;45.15;102179.88;5032488;28;19944;-81
2021/11/22 00:09:41;;;;;;;;;;;;;;;13.28;45.70;102190.22;5017723;28;20351;-81
2021/11/22 00:12:07;;;;;;;;;;;;;;;13.30;45.40;102191.97;5017016;28;19933;-81
2021/11/22 00:14:32;;;;;;;;;;;;;;;13.34;45.13;102190.03;5032871;28;20407;-80
2021/11/22 00:16:58;;;;;;;;;;;;;;;13.17;45.65;102190.63;5033029;28;19917;-81
2021/11/22 00:19:23;;;;;;;;;;;;;;;13.08;45.95;102200.00;5017565;28;20393;-81
2021/11/22 00:21:49;;;;;;;;;;;;;;;12.74;46.90;102203.03;5017076;28;20030;-81
2021/11/22 00:24:14;;;;;;;;;;;;;;;12.72;46.71;102203.09;5017339;28;19922;-81
2021/11/22 00:26:40;;;;;;;;;;;;;;;13.15;45.71;102205.22;5032631;28;20338;-81
2021/11/22 00:29:05;;;;;;;;;;;;;;;13.08;45.73;102210.88;5031970;28;20368;-81
2021/11/22 00:31:30;;;;;;;;;;;;;;;13.06;45.85;102218.19;5017304;28;20446;-82
2021/11/22 00:33:56;;;;;;;;;;;;;;;12.95;46.22;102220.41;5032501;28;19918;-82
2021/11/22 00:36:22;;;;;;;;;;;;;;;12.84;46.83;102217.19;5033182;28;20388;-81
2021/11/22 00:38:47;;;;;;;;;;;;;;;12.91;46.12;102227.78;5032170;28;19918;-81
2021/11/22 00:41:13;;;;;;;;;;;;;;;12.84;46.55;102228.06;5017356;28;19933;-82
2021/11/22 00:43:38;;;;;;;;;;;;;;;13.05;46.09;102226.41;5013327;28;19968;-81
2021/11/22 00:46:05;;;;;;;;;;;;;;;12.85;46.75;102230.72;4996921;28;19918;-80
2021/11/22 00:48:30;;;;;;;;;;;;;;;12.77;46.94;102243.66;5012156;28;19989;-82
2021/11/22 00:50:55;;;;;;;;;;;;;;;12.96;46.06;102238.47;5012988;28;20008;-81
2021/11/22 00:53:21;;;;;;;;;;;;;;;12.80;46.88;102243.56;4997700;28;19964;-82
2021/11/22 00:55:47;;;;;;;;;;;;;;;12.88;46.65;102243.31;4997293;28;19917;-82
2021/11/22 00:58:12;;;;;;;;;;;;;;;12.69;46.93;102249.34;5012491;28;19976;-81
2021/11/22 01:00:37;;;;;;;;;;;;;;;12.95;46.28;102258.44;5012178;28;19918;-81
2021/11/22 01:03:03;;;;;;;;;;;;;;;13.03;46.05;102264.50;4997227;28;19929;-82
2021/11/22 01:05:29;;;;;;;;;;;;;;;12.87;46.52;102261.41;5011594;28;20008;-81
2021/11/22 01:07:54;;;;;;;;;;;;;;;12.91;46.33;102270.38;4997776;28;19926;-81
2021/11/22 01:10:20;;;;;;;;;;;;;;;12.66;46.46;102273.91;5013087;28;20114;-81
2021/11/22 01:12:45;;;;;;;;;;;;;;;12.68;46.56;102266.59;5011710;28;20004;-81
2021/11/22 01:15:12;;;;;;;;;;;;;;;12.74;46.35;102270.91;5011669;28;19957;-82
2021/11/22 01:17:38;;;;;;;;;;;;;;;12.72;46.58;102276.41;4997682;28;19918;-81
2021/11/22 01:20:04;;;;;;;;;;;;;;;12.86;46.40;102269.63;5012227;28;19949;-81
2021/11/22 01:22:30;;;;;;;;;;;;;;;12.85;45.94;102284.16;5011278;28;19918;-82
2021/11/22 01:24:56;;;;;;;;;;;;;;;12.79;46.23;102281.63;5011031;28;19929;-81
2021/11/22 01:27:21;;;;;;;;;;;;;;;12.52;46.83;102289.78;5011313;28;19917;-80
2021/11/22 01:29:47;;;;;;;;;;;;;;;12.50;46.89;102294.34;5011489;28;20390;-81
2021/11/22 01:32:12;;;;;;;;;;;;;;;12.58;47.00;102300.44;5012481;28;19918;-81
2021/11/22 01:34:38;;;;;;;;;;;;;;;12.36;46.97;102303.81;5012249;28;19925;-82
2021/11/22 01:37:03;;;;;;;;;;;;;;;12.65;46.68;102310.16;5011766;28;19945;-81
2021/11/22 01:39:29;;;;;;;;;;;;;;;12.24;47.43;102312.34;5011643;28;19944;-81
2021/11/22 01:41:54;;;;;;;;;;;;;;;12.67;46.67;102310.09;4995728;28;19932;-81
2021/11/22 01:44:19;;;;;;;;;;;;;;;12.47;47.28;102313.44;5011099;28;20474;-82
2021/11/22 01:46:45;;;;;;;;;;;;;;;12.09;47.71;102326.38;4996654;28;19964;-81
2021/11/22 01:49:10;;;;;;;;;;;;;;;12.65;46.11;102320.09;5011960;28;19922;-81
2021/11/22 01:51:36;;;;;;;;;;;;;;;12.69;46.25;102325.38;5012079;28;20005;-81
2021/11/22 01:54:01;;;;;;;;;;;;;;;12.50;46.61;102329.63;5011619;28;19918;-81
2021/11/22 01:56:26;;;;;;;;;;;;;;;12.23;47.30;102337.72;4995470;28;20362;-81
2021/11/22 01:58:52;;;;;;;;;;;;;;;12.44;47.12;102335.25;5010428;28;19973;-81
2021/11/22 02:01:17;;;;;;;;;;;;;;;12.69;46.42;102336.25;5010891;28;20056;-81
2021/11/22 02:03:42;;;;;;;;;;;;;;;12.53;46.21;102337.69;4996255;28;19918;-82
2021/11/22 02:06:08;;;;;;;;;;;;;;;12.16;47.23;102333.41;5011684;28;19918;-81
2021/11/22 02:08:33;;;;;;;;;;;;;;;12.24;47.21;102347.63;4996373;28;19941;-81
2021/11/22 02:10:59;;;;;;;;;;;;;;;12.24;47.27;102344.91;5011018;28;19913;-81
2021/11/22 02:13:24;;;;;;;;;;;;;;;12.48;46.46;102345.09;4996313;28;19980;-80
2021/11/22 02:15:49;;;;;;;;;;;;;;;11.82;48.06;102345.22;5010145;28;19918;-81
2021/11/22 02:18:18;;;;;;;;;;;;;;;12.00;47.71;102350.16;5011109;28;19914;-81
2021/11/22 02:20:44;;;;;;;;;;;;;;;12.37;47.04;102348.16;5011224;28;19918;-81
2021/11/22 02:23:10;;;;;;;;;;;;;;;12.09;47.02;102345.38;5010990;28;19918;-81
2021/11/22 02:25:37;;;;;;;;;;;;;;;12.11;47.01;102347.13;5011597;28;19968;-81
2021/11/22 02:28:03;;;;;;;;;;;;;;;12.10;47.11;102355.31;5011557;28;20441;-82
2021/11/22 02:30:30;;;;;;;;;;;;;;;11.80;48.13;102358.81;5011177;28;19971;-81
2021/11/22 02:32:56;;;;;;;;;;;;;;;12.00;47.36;102365.50;5011146;28;19925;-81
2021/11/22 02:35:22;;;;;;;;;;;;;;;12.02;47.25;102363.66;5010806;28;19922;-82
2021/11/22 02:37:47;;;;;;;;;;;;;;;12.09;46.94;102364.38;5011312;28;19918;-81
2021/11/22 02:40:13;;;;;;;;;;;;;;;11.91;47.08;102371.19;5010872;28;19925;-81
2021/11/22 02:42:42;;;;;;;;;;;;;;;11.95;46.93;102379.22;4995868;28;19928;-82
2021/11/22 02:45:11;;;;;;;;;;;;;;;12.20;46.18;102375.81;4996299;28;19922;-81
2021/11/22 02:47:37;;;;;;;;;;;;;;;12.18;46.15;102369.50;5007218;28;19944;-81
2021/11/22 02:50:04;;;;;;;;;;;;;;;12.26;45.76;102377.41;5010355;28;19985;-81
2021/11/22 02:52:29;;;;;;;;;;;;;;;12.28;45.62;102375.56;5011620;28;19918;-81
2021/11/22 02:54:54;;;;;;;;;;;;;;;12.24;45.51;102377.47;5010716;28;20006;-81
2021/11/22 02:57:19;;;;;;;;;;;;;;;12.46;45.14;102390.41;5011286;28;19925;-82
2021/11/22 02:59:45;;;;;;;;;;;;;;;12.53;44.94;102381.09;5010990;28;19925;-82
2021/11/22 03:02:12;;;;;;;;;;;;;;;12.39;45.16;102390.59;5010811;28;19969;-81
2021/11/22 03:04:39;;;;;;;;;;;;;;;12.22;45.25;102398.34;4996593;28;19977;-82
2021/11/22 03:07:05;;;;;;;;;;;;;;;12.18;45.19;102399.34;5010030;28;19918;-82
2021/11/22 03:09:30;;;;;;;;;;;;;;;11.93;45.13;102404.63;5014326;28;19922;-81
2021/11/22 03:11:56;;;;;;;;;;;;;;;11.81;45.93;102403.97;4998121;28;19932;-81
2021/11/22 03:14:23;;;;;;;;;;;;;;;11.77;46.27;102409.53;4998639;28;20271;-81
2021/11/22 03:16:48;;;;;;;;;;;;;;;11.99;45.62;102408.03;5014854;28;19925;-81
2021/11/22 03:19:13;;;;;;;;;;;;;;;12.21;45.24;102418.25;4999333;28;19918;-81
2021/11/22 03:21:39;;;;;;;;;;;;;;;12.29;44.63;102421.66;4998495;28;20359;-80
2021/11/22 03:24:04;;;;;;;;;;;;;;;12.22;44.88;102418.22;4998814;28;19928;-81
2021/11/22 03:26:29;;;;;;;;;;;;;;;12.14;44.53;102424.78;5014518;28;20430;-81
2021/11/22 03:28:54;;;;;;;;;;;;;;;12.10;45.05;102425.84;5014064;28;20017;-81
2021/11/22 03:31:20;;;;;;;;;;;;;;;12.13;44.99;102431.16;5013333;28;20020;-81
2021/11/22 03:33:47;;;;;;;;;;;;;;;12.23;44.32;102433.56;5013729;28;20359;-81
2021/11/22 03:36:13;;;;;;;;;;;;;;;12.16;44.24;102431.06;4998760;28;19918;-81
2021/11/22 03:38:38;;;;;;;;;;;;;;;12.05;44.91;102434.97;5012841;28;19922;-81
2021/11/22 03:41:10;;;;;;;;;;;;;;;12.05;44.59;102437.69;5013378;28;19928;-81
2021/11/22 03:43:45;;;;;;;;;;;;;;;11.93;44.45;102445.31;4998669;28;19918;-81
2021/11/22 03:46:11;;;;;;;;;;;;;;;12.07;44.24;102442.19;5013353;28;20001;-81
2021/11/22 03:48:37;;;;;;;;;;;;;;;11.90;45.06;102451.66;5013628;28;19958;-81
2021/11/22 03:51:02;;;;;;;;;;;;;;;11.61;45.76;102449.72;5013486;28;19965;-81
2021/11/22 03:53:28;;;;;;;;;;;;;;;11.73;45.18;102454.84;5012927;28;20131;-81
2021/11/22 03:55:53;;;;;;;;;;;;;;;11.77;45.09;102456.50;4998512;28;20008;-81
2021/11/22 03:58:18;;;;;;;;;;;;;;;11.81;45.12;102462.75;5013056;28;20276;-81
2021/11/22 04:00:43;;;;;;;;;;;;;;;11.79;44.88;102465.50;4998339;28;19918;-81
2021/11/22 04:03:09;;;;;;;;;;;;;;;11.86;44.96;102467.09;4998716;28;19972;-81
2021/11/22 04:05:34;;;;;;;;;;;;;;;11.85;44.70;102475.28;5013207;28;19918;-82
2021/11/22 04:07:59;;;;;;;;;;;;;;;11.80;44.97;102474.53;5013331;28;19922;-81
2021/11/22 04:10:25;;;;;;;;;;;;;;;11.73;45.26;102476.53;5012819;28;20004;-81
2021/11/22 04:12:50;;;;;;;;;;;;;;;11.68;45.32;102481.16;4997542;28;19926;-81
2021/11/22 04:15:15;;;;;;;;;;;;;;;11.45;45.62;102482.63;5013039;28;19918;-81
2021/11/22 04:17:41;;;;;;;;;;;;;;;11.16;46.69;102481.53;4998290;28;20371;-81
2021/11/22 04:20:06;;;;;;;;;;;;;;;11.30;46.37;102493.84;5012586;28;20302;-82
2021/11/22 04:22:32;;;;;;;;;;;;;;;11.05;47.02;102497.16;5013017;28;19918;-81
2021/11/22 04:24:57;;;;;;;;;;;;;;;10.85;47.79;102500.28;4998071;28;19922;-81
2021/11/22 04:27:22;;;;;;;;;;;;;;;10.98;47.09;102506.34;5012163;28;20449;-81
2021/11/22 04:29:49;;;;;;;;;;;;;;;10.96;46.85;102506.38;4997288;28;20326;-81
2021/11/22 04:32:14;;;;;;;;;;;;;;;11.07;46.76;102507.97;5012703;28;19965;-81
2021/11/22 04:34:40;;;;;;;;;;;;;;;11.54;46.21;102505.91;5012440;28;19922;-82
2021/11/22 04:37:06;;;;;;;;;;;;;;;11.46;45.82;102507.94;5012462;28;20371;-82
2021/11/22 04:39:31;;;;;;;;;;;;;;;11.49;45.73;102514.16;4997988;28;19922;-81
2021/11/22 04:41:56;;;;;;;;;;;;;;;11.44;46.00;102524.19;5012129;28;20071;-82
2021/11/22 04:44:22;;;;;;;;;;;;;;;11.54;46.14;102516.75;4996354;28;19925;-81
2021/11/22 04:46:47;;;;;;;;;;;;;;;11.65;45.62;102517.34;5012239;28;19918;-82
2021/11/22 04:49:12;;;;;;;;;;;;;;;11.73;45.30;102525.31;5012271;28;19921;-82
2021/11/22 04:51:38;;;;;;;;;;;;;;;11.87;44.62;102522.25;5012329;28;19925;-81
2021/11/22 04:54:03;;;;;;;;;;;;;;;11.78;45.21;102526.09;5012353;28;19918;-82
2021/11/22 04:56:29;;;;;;;;;;;;;;;11.61;45.11;102533.75;5012403;28;19928;-82
2021/11/22 04:58:54;;;;;;;;;;;;;;;11.70;45.15;102531.72;4996840;28;20020;-82
2021/11/22 05:01:19;;;;;;;;;;;;;;;11.26;46.43;102536.41;4996800;28;19928;-81
2021/11/22 05:03:48;;;;;;;;;;;;;;;11.11;46.28;102534.94;5012440;28;20367;-82
2021/11/22 05:06:13;;;;;;;;;;;;;;;11.50;46.03;102539.44;5012334;28;19925;-82
2021/11/22 05:08:38;;;;;;;;;;;;;;;11.45;45.90;102539.53;4996717;28;19918;-81
2021/11/22 05:11:04;;;;;;;;;;;;;;;11.32;45.87;102541.69;5017573;28;19934;-81
2021/11/22 05:13:29;;;;;;;;;;;;;;;11.66;45.13;102551.69;5030968;28;19944;-81
2021/11/22 05:15:54;;;;;;;;;;;;;;;11.82;44.21;102556.72;5012636;28;19922;-81
2021/11/22 05:18:20;;;;;;;;;;;;;;;11.55;45.37;102556.50;5031305;28;20449;-81
2021/11/22 05:20:45;;;;;;;;;;;;;;;11.74;45.01;102565.03;5031333;28;20256;-81
2021/11/22 05:23:11;;;;;;;;;;;;;;;11.75;45.00;102558.69;5031500;28;20033;-81
2021/11/22 05:25:37;;;;;;;;;;;;;;;11.83;44.85;102570.22;5013467;28;19956;-82
2021/11/22 05:28:03;;;;;;;;;;;;;;;11.84;44.41;102557.59;5013360;28;20317;-82
2021/11/22 05:30:28;;;;;;;;;;;;;;;11.77;44.78;102570.38;5031648;28;19925;-80
2021/11/22 05:32:58;;;;;;;;;;;;;;;11.61;45.17;102572.59;5003286;28;19925;-82
2021/11/22 05:35:24;;;;;;;;;;;;;;;11.61;44.89;102571.69;5013988;28;19936;-81
2021/11/22 05:37:49;;;;;;;;;;;;;;;11.70;45.05;102575.09;5010035;28;20364;-80
2021/11/22 05:40:14;;;;;;;;;;;;;;;11.72;44.37;102576.88;5012221;28;20020;-80
2021/11/22 05:42:40;;;;;;;;;;;;;;;11.82;44.52;102576.59;5022154;28;19926;-80
2021/11/22 05:45:05;;;;;;;;;;;;;;;11.57;44.76;102587.16;5007027;28;20390;-81
2021/11/22 05:47:31;;;;;;;;;;;;;;;11.66;44.48;102581.50;5004742;28;19971;-81
2021/11/22 05:50:03;;;;;;;;;;;;;;;11.59;44.44;102590.72;5006602;28;20004;-79
2021/11/22 05:52:29;;;;;;;;;;;;;;;11.64;44.59;102591.50;5022860;28;19924;-82
2021/11/22 05:54:56;;;;;;;;;;;;;;;11.50;44.92;102589.13;5002605;28;20298;-83
2021/11/22 05:57:22;;;;;;;;;;;;;;;11.60;44.82;102588.91;5012250;28;19969;-80
2021/11/22 05:59:47;;;;;;;;;;;;;;;11.62;44.62;102600.59;5011954;28;19961;-80
2021/11/22 06:02:13;;;;;;;;;;;;;;;11.52;44.58;102608.06;4996622;28;19925;-80
2021/11/22 06:04:38;;;;;;;;;;;;;;;11.49;44.46;102608.13;5011422;28;20016;-80
2021/11/22 06:07:03;;;;;;;;;;;;;;;11.49;44.61;102605.44;4995950;28;19965;-79
2021/11/22 06:09:29;;;;;;;;;;;;;;;11.44;44.94;102613.63;4995932;28;19917;-80
2021/11/22 06:11:54;;;;;;;;;;;;;;;11.53;44.73;102616.16;4995933;28;19929;-80
2021/11/22 06:14:20;;;;;;;;;;;;;;;11.32;45.08;102616.63;4995827;28;19921;-80
2021/11/22 06:16:45;;;;;;;;;;;;;;;11.29;45.23;102623.03;5011635;28;19921;-80
2021/11/22 06:19:10;;;;;;;;;;;;;;;11.08;45.35;102624.38;5011126;28;20413;-81
2021/11/22 06:21:35;;;;;;;;;;;;;;;10.96;45.39;102625.53;4995866;28;20375;-81
2021/11/22 06:24:04;;;;;;;;;;;;;;;11.13;45.12;102635.13;5010794;28;19929;-81
2021/11/22 06:26:29;;;;;;;;;;;;;;;11.16;44.99;102644.06;5011364;28;19917;-81
2021/11/22 06:28:54;;;;;;;;;;;;;;;11.16;45.17;102643.19;5011673;28;20220;-80
2021/11/22 06:31:20;;;;;;;;;;;;;;;11.16;44.88;102644.06;4996889;28;19922;-82
2021/11/22 06:33:45;;;;;;;;;;;;;;;11.25;44.93;102647.50;5011536;28;19918;-81
2021/11/22 06:36:10;;;;;;;;;;;;;;;11.14;44.90;102648.63;5015311;28;20016;-82
2021/11/22 06:38:36;;;;;;;;;;;;;;;11.25;44.66;102655.66;5016056;28;19949;-82
2021/11/22 06:41:01;;;;;;;;;;;;;;;11.09;44.75;102653.22;4999381;28;19922;-80
2021/11/22 06:43:26;;;;;;;;;;;;;;;11.23;44.65;102654.75;5013959;28;20367;-83
2021/11/22 06:45:51;;;;;;;;;;;;;;;10.88;44.93;102665.38;5001517;28;20260;-83
2021/11/22 06:48:17;;;;;;;;;;;;;;;11.12;44.43;102673.97;5015581;28;19918;-81
2021/11/22 06:50:42;;;;;;;;;;;;;;;11.15;44.43;102676.59;5015160;28;20442;-82
2021/11/22 06:53:07;;;;;;;;;;;;;;;11.02;44.87;102684.09;5015533;28;20422;-85
2021/11/22 06:55:33;;;;;;;;;;;;;;;11.02;44.91;102688.59;5015969;28;19941;-86
2021/11/22 06:57:58;;;;;;;;;;;;;;;10.89;45.14;102698.81;5003012;28;19918;-86
2021/11/22 07:00:24;;;;;;;;;;;;;;;10.87;45.14;102701.53;5015947;28;19917;-84
2021/11/22 07:02:52;;;;;;;;;;;;;;;11.07;45.01;102705.69;5016399;28;19918;-88
2021/11/22 07:05:22;;;;;;;;;;;;;;;10.80;45.17;102721.53;5016543;28;19918;-85
2021/11/22 07:07:49;;;;;;;;;;;;;;;10.97;45.07;102722.06;5000154;28;19918;-82
2021/11/22 07:10:15;;;;;;;;;;;;;;;10.99;45.00;102722.03;5014366;28;20513;-84
2021/11/22 07:12:41;;;;;;;;;;;;;;;10.97;44.61;102723.91;5014896;28;20502;-84
2021/11/22 07:15:06;;;;;;;;;;;;;;;10.66;45.65;102728.97;5013680;28;19925;-82
2021/11/22 07:17:32;;;;;;;;;;;;;;;10.05;47.50;102743.44;4998716;28;19913;-83
2021/11/22 07:19:57;;;;;;;;;;;;;;;10.75;45.95;102745.06;5012807;28;19918;-83
2021/11/22 07:22:23;;;;;;;;;;;;;;;10.98;45.22;102750.97;5012717;28;19925;-84
2021/11/22 07:24:48;;;;;;;;;;;;;;;10.84;45.38;102752.13;4995878;28;19932;-84
2021/11/22 07:27:14;;;;;;;;;;;;;;;10.73;45.65;102753.22;5013070;28;19918;-84
2021/11/22 07:29:41;;;;;;;;;;;;;;;10.78;45.48;102758.56;4998402;28;20283;-84
2021/11/22 07:32:06;;;;;;;;;;;;;;;10.82;45.96;102758.50;5013594;28;19918;-84
2021/11/22 07:34:32;;;;;;;;;;;;;;;11.00;45.88;102761.75;5013796;28;19918;-83
2021/11/22 07:36:57;;;;;;;;;;;;;;;10.80;45.83;102770.25;5014425;28;19898;-84
2021/11/22 07:39:24;;;;;;;;;;;;;;;11.10;45.50;102774.22;4999058;28;19922;-84
2021/11/22 07:41:51;;;;;;;;;;;;;;;11.25;44.80;102766.72;5012545;28;19921;-84
2021/11/22 07:44:16;;;;;;;;;;;;;;;10.96;45.58;102779.91;5014089;28;20004;-84
2021/11/22 07:46:42;;;;;;;;;;;;;;;11.09;45.33;102780.53;5014768;28;19957;-84
2021/11/22 07:49:07;;;;;;;;;;;;;;;11.12;45.57;102783.19;5013997;28;19918;-84
2021/11/22 07:51:34;;;;;;;;;;;;;;;11.20;45.50;102793.00;5014001;28;19917;-85
2021/11/22 07:54:00;;;;;;;;;;;;;;;11.42;44.92;102788.06;5013868;28;19906;-84
2021/11/22 07:56:25;;;;;;;;;;;;;;;11.48;44.98;102788.81;5012674;28;20363;-84
2021/11/22 07:58:51;;;;;;;;;;;;;;;11.48;44.92;102793.34;4997697;28;19922;-83
2021/11/22 08:01:16;;;;;;;;;;;;;;;11.48;44.83;102798.78;5013719;28;19918;-83
2021/11/22 08:03:41;;;;;;;;;;;;;;;11.65;45.01;102810.16;5014330;28;19917;-84
2021/11/22 08:06:06;;;;;;;;;;;;;;;11.70;44.65;102805.56;5013701;28;19918;-84
2021/11/22 08:08:36;;;;;;;;;;;;;;;11.44;45.43;102800.63;5013798;28;19933;-83
2021/11/22 08:13:39;;;;;;;;;;;;;;;11.88;45.23;102816.91;4999558;28;19914;-84
2021/11/22 08:16:07;;;;;;;;;;;;;;;12.01;45.36;102829.31;5014417;28;19918;-84
2021/11/22 08:18:32;;;;;;;;;;;;;;;12.09;45.09;102823.72;5027319;28;19921;-85
2021/11/22 08:20:58;;;;;;;;;;;;;;;12.44;44.55;102826.56;5016194;28;19925;-85
2021/11/22 08:23:23;;;;;;;;;;;;;;;12.59;44.33;102826.19;5017014;28;20009;-85
2021/11/22 08:25:50;;;;;;;;;;;;;;;12.49;43.75;102828.25;5017247;28;19925;-83
2021/11/22 08:28:15;;;;;;;;;;;;;;;12.88;44.54;102822.75;5016487;28;20454;-84
2021/11/22 08:30:41;;;;;;;;;;;;;;;13.07;43.74;102828.63;5018443;28;19945;-86
2021/11/22 08:33:13;;;;;;;;;;;;;;;12.91;43.06;102827.22;5011359;28;19929;-87
2021/11/22 08:35:38;;;;;;;;;;;;;;;13.42;43.74;102829.53;5016532;28;19926;-82
2021/11/22 08:38:04;;;;;;;;;;;;;;;13.62;43.67;102828.06;5014506;28;20016;-87
2021/11/22 08:40:29;;;;;;;;;;;;;;;13.91;42.82;102838.09;5017991;28;19922;-85
2021/11/22 08:42:55;;;;;;;;;;;;;;;13.86;42.70;102834.63;5027294;28;19921;-86
2021/11/22 08:45:21;;;;;;;;;;;;;;;13.98;43.14;102841.53;5009329;28;19970;-87
2021/11/22 08:47:46;;;;;;;;;;;;;;;13.93;43.02;102846.19;5033999;28;19908;-86
2021/11/22 08:50:13;;;;;;;;;;;;;;;14.11;42.76;102847.47;5017737;28;19985;-87
2021/11/22 08:52:39;;;;;;;;;;;;;;;14.17;42.51;102850.88;5033861;28;20283;-85
2021/11/22 08:55:05;;;;;;;;;;;;;;;14.51;42.55;102847.13;5034143;28;19922;-80
2021/11/22 08:57:31;;;;;;;;;;;;;;;14.71;42.55;102851.06;5025424;28;20298;-82
2021/11/22 08:59:56;;;;;;;;;;;;;;;14.64;41.58;102854.94;5018906;28;19921;-86
2021/11/22 09:02:21;;;;;;;;;;;;;;;14.38;42.07;102853.03;5032850;28;19944;-86
2021/11/22 09:04:48;;;;;;;;;;;;;;;14.77;42.13;102867.22;5033452;28;19917;-85
2021/11/22 09:07:14;;;;;;;;;;;;;;;14.82;42.05;102864.34;5032577;28;20000;-87
2021/11/22 09:09:39;;;;;;;;;;;;;;;15.11;41.06;102871.50;5033119;28;19971;-83
2021/11/22 09:12:04;;;;;;;;;;;;;;;15.20;41.17;102871.22;5031849;28;19952;-88
2021/11/22 09:14:29;;;;;;;;;;;;;;;15.29;40.92;102880.91;5033195;28;19947;-87
2021/11/22 09:16:55;;;;;;;;;;;;;;;14.97;41.86;102879.28;5033074;28;19925;-84
2021/11/22 09:19:20;;;;;;;;;;;;;;;15.60;41.33;102882.53;5032933;28;20310;-85
2021/11/22 09:21:45;;;;;;;;;;;;;;;15.60;41.54;102886.16;5016902;28;19928;-84
2021/11/22 09:24:10;;;;;;;;;;;;;;;15.78;40.87;102889.22;5016012;28;19932;-86
2021/11/22 09:26:36;;;;;;;;;;;;;;;15.80;41.12;102892.75;5031878;28;19918;-85
2021/11/22 09:29:03;;;;;;;;;;;;;;;16.15;40.85;102887.81;5016983;28;20455;-85
2021/11/22 09:31:28;;;;;;;;;;;;;;;15.62;41.77;102897.00;5017753;28;19925;-90
2021/11/22 09:33:54;;;;;;;;;;;;;;;15.57;41.61;102893.56;5033269;28;19922;-85
2021/11/22 09:36:20;;;;;;;;;;;;;;;16.10;40.22;102895.28;5017474;28;19924;-85
2021/11/22 09:38:45;;;;;;;;;;;;;;;16.14;40.66;102899.69;5032216;28;19935;-83
2021/11/22 09:41:11;;;;;;;;;;;;;;;16.24;40.66;102908.41;5015283;28;19921;-82
2021/11/22 09:43:37;;;;;;;;;;;;;;;16.92;39.59;102908.47;5031857;28;19924;-83
2021/11/22 09:46:02;;;;;;;;;;;;;;;16.62;39.67;102908.72;5031684;28;20316;-84
2021/11/22 09:48:28;;;;;;;;;;;;;;;16.77;39.66;102909.97;5032985;28;19918;-90
2021/11/22 09:50:53;;;;;;;;;;;;;;;17.14;39.47;102913.94;5033239;28;19918;-88
2021/11/22 09:53:19;;;;;;;;;;;;;;;18.08;38.06;102920.78;5022044;28;19953;-89
2021/11/22 09:55:44;;;;;;;;;;;;;;;18.20;37.67;102924.78;5018796;28;19947;-87
2021/11/22 09:58:11;;;;;;;;;;;;;;;18.65;36.60;102912.59;5033155;28;20398;-89
2021/11/22 10:00:37;;;;;;;;;;;;;;;19.32;35.57;102923.03;5032918;28;19917;-87
2021/11/22 10:03:06;;;;;;;;;;;;;;;19.35;35.66;102918.25;5033803;28;19957;-88
2021/11/22 10:05:35;;;;;;;;;;;;;;;19.42;35.16;102919.72;5032994;28;20004;-85
2021/11/22 10:08:05;;;;;;;;;;;;;;;19.16;35.63;102920.16;5033348;28;19928;-86
2021/11/22 10:10:47;;;;;;;;;;;;;;;20.10;33.77;102913.38;5033406;28;19941;-88
2021/11/22 10:13:20;;;;;;;;;;;;;;;20.29;33.15;102917.84;5018787;28;19921;-88
2021/11/22 10:15:45;;;;;;;;;;;;;;;21.10;32.32;102920.56;5018446;28;19948;-89
2021/11/22 10:18:18;;;;;;;;;;;;;;;20.06;32.94;102927.38;5022088;28;19922;-88
2021/11/22 10:20:43;;;;;;;;;;;;;;;20.16;33.25;102921.28;5040584;28;19924;-88
2021/11/22 10:23:12;;;;;;;;;;;;;;;21.45;32.04;102914.81;5041183;28;19917;-87
2021/11/22 10:25:39;;;;;;;;;;;;;;;20.61;32.31;102921.56;5041447;28;19925;-87
2021/11/22 10:28:04;;;;;;;;;;;;;;;20.85;31.75;102910.16;5043474;28;20370;-87
2021/11/22 10:30:30;;;;;;;;;;;;;;;20.84;32.38;102914.75;5025413;28;19925;-86
2021/11/22 10:32:56;;;;;;;;;;;;;;;19.26;33.98;102922.41;5022939;28;20438;-89
2021/11/22 10:35:22;;;;;;;;;;;;;;;19.62;33.66;102915.03;5038830;28;19968;-88
2021/11/22 10:37:55;;;;;;;;;;;;;;;19.71;33.33;102917.28;5037158;28;19917;-87
2021/11/22 10:40:21;;;;;;;;;;;;;;;20.60;31.87;102918.88;5039039;28;20009;-88
2021/11/22 10:42:46;;;;;;;;;;;;;;;21.02;31.02;102920.16;5025231;28;19953;-87
2021/11/22 10:45:28;;;;;;;;;;;;;;;20.01;32.12;102925.78;5040124;28;19917;-90
2021/11/22 10:48:09;;;;;;;;;;;;;;;21.15;30.92;102912.94;5038977;28;20078;-89
2021/11/22 10:50:47;;;;;;;;;;;;;;;21.08;30.22;102914.28;5036766;28;19917;-89
2021/11/22 10:53:12;;;;;;;;;;;;;;;21.35;30.01;102916.38;5021125;28;19971;-91
2021/11/22 10:55:47;;;;;;;;;;;;;;;20.97;30.78;102920.44;5037691;28;19969;-91
2021/11/22 10:58:34;;;;;;;;;;;;;;;20.74;30.85;102913.50;5038177;28;19914;-89
2021/11/22 11:01:11;;;;;;;;;;;;;;;22.69;28.73;102915.34;5037203;28;19921;-89
2021/11/22 11:03:37;;;;;;;;;;;;;;;21.14;29.52;102910.28;5036699;28;20429;-92
2021/11/22 11:06:02;;;;;;;;;;;;;;;21.19;30.13;102927.41;5038254;28;19997;-90
2021/11/22 11:08:30;;;;;;;;;;;;;;;20.46;30.79;102925.19;5038764;28;19925;-89
2021/11/22 11:11:09;;;;;;;;;;;;;;;20.75;30.64;102920.78;5038871;28;19987;-89
2021/11/22 11:13:47;;;;;;;;;;;;;;;19.58;32.68;102928.06;5039034;28;19921;-89
2021/11/22 11:16:15;;;;;;;;;;;;;;;18.94;33.33;102926.75;5026037;28;19923;-85
2021/11/22 11:18:41;;;;;;;;;;;;;;;18.08;34.50;102928.09;5039808;28;19918;-84
2021/11/22 11:21:06;;;;;;;;;;;;;;;18.58;33.93;102931.22;5021532;28;20375;-85
2021/11/22 11:23:32;;;;;;;;;;;;;;;18.06;34.45;102928.19;5039157;28;19921;-83
2021/11/22 11:25:58;;;;;;;;;;;;;;;18.34;34.94;102933.28;5036951;28;19928;-88
2021/11/22 11:28:23;;;;;;;;;;;;;;;19.85;32.38;102941.31;5036906;28;19989;-87
2021/11/22 11:30:49;;;;;;;;;;;;;;;20.26;31.40;102926.28;5021223;28;19917;-86
2021/11/22 11:33:14;;;;;;;;;;;;;;;21.09;30.73;102934.44;5036506;28;20315;-86
2021/11/22 11:35:45;;;;;;;;;;;;;;;21.50;29.79;102928.31;5036160;28;19952;-86
2021/11/22 11:38:23;;;;;;;;;;;;;;;21.89;29.81;102926.84;5036818;28;19929;-86
2021/11/22 11:41:12;;;;;;;;;;;;;;;22.06;28.88;102928.56;5037387;28;19929;-87
2021/11/22 11:43:56;;;;;;;;;;;;;;;22.51;28.27;102925.69;5020735;28;19922;-86
2021/11/22 11:46:34;;;;;;;;;;;;;;;22.34;28.00;102929.56;5022651;28;19921;-88
2021/11/22 11:49:05;;;;;;;;;;;;;;;22.91;28.09;102914.78;5023838;28;19925;-87
2021/11/22 11:51:35;;;;;;;;;;;;;;;23.56;27.15;102927.84;5036306;28;20508;-86
2021/11/22 11:54:01;;;;;;;;;;;;;;;23.53;26.77;102933.59;5019296;28;19917;-86
2021/11/22 11:56:33;;;;;;;;;;;;;;;23.19;27.16;102930.41;5018869;28;19924;-87
2021/11/22 11:59:12;;;;;;;;;;;;;;;22.98;27.48;102927.19;5027250;28;19924;-86
2021/11/22 12:01:57;;;;;;;;;;;;;;;23.60;27.15;102934.94;5031761;28;19928;-86
2021/11/22 12:04:23;;;;;;;;;;;;;;;23.21;27.57;102931.19;5020695;28;19976;-91
2021/11/22 12:06:50;;;;;;;;;;;;;;;23.32;27.01;102931.31;5022120;28;20347;-86
2021/11/22 12:09:32;;;;;;;;;;;;;;;20.13;30.89;102934.31;5019010;28;19964;-86
2021/11/22 12:12:20;;;;;;;;;;;;;;;20.37;30.50;102926.59;5019855;28;19926;-86
2021/11/22 12:14:55;;;;;;;;;;;;;;;20.71;30.26;102936.59;5015676;28;19932;-87
2021/11/22 12:17:36;;;;;;;;;;;;;;;20.79;30.69;102929.72;5018862;28;19960;-87
2021/11/22 12:20:07;;;;;;;;;;;;;;;20.82;30.95;102926.81;5019887;28;20482;-89
2021/11/22 12:22:36;;;;;;;;;;;;;;;20.57;31.47;102921.81;5035895;28;19962;-88
2021/11/22 12:25:02;;;;;;;;;;;;;;;19.98;32.05;102930.56;5035058;28;19925;-89
2021/11/22 12:27:27;;;;;;;;;;;;;;;18.71;34.25;102925.13;5036498;28;20401;-89
2021/11/22 12:29:53;;;;;;;;;;;;;;;19.35;33.42;102926.50;5028637;28;19929;-88
2021/11/22 12:32:25;;;;;;;;;;;;;;;18.85;34.36;102932.66;5036160;28;19917;-87
2021/11/22 12:34:57;;;;;;;;;;;;;;;18.45;35.49;102930.00;5018021;28;19924;-87
2021/11/22 12:37:29;;;;;;;;;;;;;;;19.57;33.54;102937.25;5034402;28;19928;-86